Time;durP1;ratioP1;P1;durP2;ratioP2;P2;SDS_P1;SDS_P2;PMS_P1;PMS_P2;Temp;Humidity;BMP_temperature;BMP_pressure;BME280_temperature;BME280_humidity;BME280_pressure;Samples;Min_cycle;Max_cycle;Signal;HPM_P1;HPM_P2
2022/05/27 00:01:29;;;;;;;7.10;0.90;;;;;;;16.98;56.49;100356.66;52586;1279;1016209;-67
2022/05/27 00:03:59;;;;;;;8.10;1.20;;;;;;;16.94;56.52;100355.15;52567;1279;1016276;-67
2022/05/27 00:06:31;;;;;;;4.80;1.00;;;;;;;16.91;56.61;100356.60;52430;1279;1018391;-67
2022/05/27 00:09:01;;;;;;;5.90;1.10;;;;;;;16.88;56.65;100351.70;52497;1279;1018197;-67
2022/05/27 00:11:30;;;;;;;3.80;0.80;;;;;;;16.87;56.74;100350.61;52435;1279;1018281;-67
2022/05/27 00:14:00;;;;;;;3.50;0.80;;;;;;;16.86;56.72;100346.11;52499;1279;1016126;-67
2022/05/27 00:16:30;;;;;;;4.90;0.90;;;;;;;16.85;57.01;100340.02;52554;1279;1019192;-67
2022/05/27 00:18:59;;;;;;;2.60;0.80;;;;;;;16.84;57.02;100338.95;52458;1279;1016989;-67
2022/05/27 00:21:28;;;;;;;3.40;0.90;;;;;;;16.81;57.11;100337.02;52637;1274;1016579;-67
2022/05/27 00:23:59;;;;;;;3.40;0.70;;;;;;;16.77;57.28;100335.81;52718;1273;1016422;-67
2022/05/27 00:26:29;;;;;;;6.10;1.10;;;;;;;16.74;57.34;100333.96;52674;1273;1016601;-67
2022/05/27 00:28:59;;;;;;;2.80;0.60;;;;;;;16.72;57.38;100330.02;52642;1273;1016560;-68
2022/05/27 00:31:28;;;;;;;5.70;0.90;;;;;;;16.71;57.64;100328.70;52793;1273;1017121;-68
2022/05/27 00:33:59;;;;;;;4.40;0.80;;;;;;;16.68;57.70;100320.21;52695;1273;1020207;-67
2022/05/27 00:36:28;;;;;;;5.30;0.80;;;;;;;16.65;57.82;100317.20;52806;1273;1016305;-67
2022/05/27 00:39:00;;;;;;;4.40;0.70;;;;;;;16.65;57.96;100316.90;52680;1273;1016509;-68
2022/05/27 00:41:30;;;;;;;4.70;0.60;;;;;;;16.64;57.92;100315.52;52559;1273;1015864;-68
2022/05/27 00:44:00;;;;;;;2.70;0.70;;;;;;;16.64;58.03;100310.48;52657;1273;1016281;-68
2022/05/27 00:46:32;;;;;;;3.30;0.60;;;;;;;16.61;58.02;100309.17;52643;1273;1016193;-68
2022/05/27 00:49:09;;;;;;;2.80;0.60;;;;;;;16.59;58.15;100306.38;52611;1273;1016850;-67
2022/05/27 00:51:44;;;;;;;3.30;0.70;;;;;;;16.57;58.30;100302.36;52796;1273;1016563;-67
2022/05/27 00:54:16;;;;;;;3.90;0.70;;;;;;;16.54;58.34;100306.53;52747;1273;1020079;-68
2022/05/27 00:56:49;;;;;;;4.10;0.90;;;;;;;16.51;58.40;100303.00;52736;1273;1016170;-67
2022/05/27 00:59:23;;;;;;;2.90;0.60;;;;;;;16.49;58.51;100300.85;52633;1273;1016049;-68
2022/05/27 01:01:54;;;;;;;3.30;0.60;;;;;;;16.47;58.52;100300.27;52631;1273;1016798;-68
2022/05/27 01:04:24;;;;;;;3.40;0.60;;;;;;;16.46;58.70;100298.40;52756;1272;1016103;-67
2022/05/27 01:06:53;;;;;;;5.50;0.80;;;;;;;16.44;58.67;100290.31;52630;1273;1016722;-68
2022/05/27 01:09:24;;;;;;;3.80;0.80;;;;;;;16.45;58.69;100293.11;52664;1273;1019616;-67
2022/05/27 01:12:16;;;;;;;2.90;0.70;;;;;;;16.46;58.59;100293.88;52666;1273;1016174;-66
2022/05/27 01:14:59;;;;;;;3.20;0.60;;;;;;;16.45;58.56;100288.35;52620;1273;1016657;-66
2022/05/27 01:17:36;;;;;;;5.80;0.70;;;;;;;16.46;58.81;100285.84;52609;1273;1015970;-66
2022/05/27 01:20:19;;;;;;;3.20;0.60;;;;;;;16.46;58.79;100281.89;52596;1273;1018615;-67
2022/05/27 01:23:12;;;;;;;4.60;0.70;;;;;;;16.46;58.68;100277.09;52689;1273;1018161;-66
2022/05/27 01:26:18;;;;;;;3.60;0.70;;;;;;;16.45;58.81;100280.55;52380;1279;1016333;-66
2022/05/27 01:28:53;;;;;;;6.40;0.70;;;;;;;16.44;58.82;100277.60;52546;1281;1016066;-67
2022/05/27 01:31:41;;;;;;;3.70;0.60;;;;;;;16.43;58.87;100270.98;52411;1279;1018215;-66
2022/05/27 01:34:26;;;;;;;5.90;0.70;;;;;;;16.43;58.98;100267.25;52381;1281;1019557;-66
2022/05/27 01:37:03;;;;;;;2.50;0.50;;;;;;;16.44;58.89;100262.44;52569;1281;1016654;-66
2022/05/27 01:39:41;;;;;;;3.80;0.60;;;;;;;16.44;58.93;100261.66;52437;1281;1015496;-66
2022/05/27 01:42:15;;;;;;;3.00;0.60;;;;;;;16.44;59.30;100256.75;52491;1281;1016676;-66
2022/05/27 01:44:52;;;;;;;10.80;2.20;;;;;;;16.42;59.39;100253.28;52456;1281;1016802;-66
2022/05/27 01:47:31;;;;;;;4.80;0.60;;;;;;;16.41;59.54;100252.27;52438;1281;1016627;-66
2022/05/27 01:50:06;;;;;;;2.90;0.80;;;;;;;16.39;59.65;100256.57;52512;1281;1016059;-67
2022/05/27 01:52:42;;;;;;;4.60;0.70;;;;;;;16.37;59.86;100248.33;52328;1281;1016814;-68
2022/05/27 01:55:18;;;;;;;4.20;0.70;;;;;;;16.35;59.86;100246.80;52475;1281;1016652;-67
2022/05/27 01:57:56;;;;;;;3.40;0.80;;;;;;;16.33;59.97;100241.68;52469;1281;1016462;-67
2022/05/27 02:00:27;;;;;;;5.30;0.80;;;;;;;16.32;60.01;100240.10;52378;1281;1017620;-67
2022/05/27 02:03:00;;;;;;;4.80;0.80;;;;;;;16.31;59.95;100239.48;52519;1273;1016886;-67
2022/05/27 02:05:35;;;;;;;7.20;0.80;;;;;;;16.30;60.10;100234.63;52684;1273;1016738;-66
2022/05/27 02:08:08;;;;;;;3.30;0.60;;;;;;;16.29;60.20;100229.09;52753;1273;1015884;-67
2022/05/27 02:10:42;;;;;;;3.30;0.60;;;;;;;16.27;60.41;100224.09;52557;1273;1016855;-67
2022/05/27 02:13:16;;;;;;;6.80;0.70;;;;;;;16.26;60.33;100221.43;52563;1271;1017012;-67
2022/05/27 02:15:48;;;;;;;3.40;0.60;;;;;;;16.24;60.54;100219.70;52545;1273;1019792;-67
2022/05/27 02:18:22;;;;;;;4.10;0.50;;;;;;;16.19;60.65;100214.75;52594;1273;1016090;-67
2022/05/27 02:20:57;;;;;;;2.60;0.50;;;;;;;16.17;60.65;100210.10;52574;1273;1016233;-67
2022/05/27 02:23:32;;;;;;;5.10;0.50;;;;;;;16.16;60.76;100208.05;52647;1273;1015820;-67
2022/05/27 02:26:04;;;;;;;2.80;0.60;;;;;;;16.16;60.63;100210.46;52549;1273;1017733;-67
2022/05/27 02:28:39;;;;;;;10.70;0.80;;;;;;;16.15;60.77;100207.19;52592;1273;1016698;-67
2022/05/27 02:31:14;;;;;;;5.70;0.80;;;;;;;16.17;60.75;100206.11;52673;1273;1016776;-66
2022/05/27 02:36:41;;;;;;;2.80;0.50;;;;;;;16.15;60.85;100201.25;52619;1273;1015948;-66
2022/05/27 02:39:11;;;;;;;2.70;0.70;;;;;;;16.17;61.03;100201.45;52655;1273;1016298;-66
2022/05/27 02:41:47;;;;;;;4.20;0.90;;;;;;;16.16;60.98;100193.31;52741;1273;1016582;-66
2022/05/27 02:44:29;;;;;;;4.70;0.70;;;;;;;16.16;60.97;100196.59;52669;1273;1017146;-66
2022/05/27 02:47:09;;;;;;;2.60;0.50;;;;;;;16.14;61.10;100194.45;52573;1273;1016705;-66
2022/05/27 02:49:48;;;;;;;3.60;0.70;;;;;;;16.14;61.02;100190.55;52595;1273;1016591;-66
2022/05/27 02:52:31;;;;;;;3.70;0.40;;;;;;;16.15;61.07;100186.50;52553;1273;1017283;-66
2022/05/27 02:55:10;;;;;;;4.90;0.60;;;;;;;16.15;61.14;100173.49;52582;1273;1016466;-66
2022/05/27 02:57:43;;;;;;;2.10;0.50;;;;;;;16.15;61.13;100166.33;52566;1273;1016413;-66
2022/05/27 03:00:16;;;;;;;11.00;0.60;;;;;;;16.16;61.12;100164.88;52597;1273;1018954;-67
2022/05/27 03:02:46;;;;;;;4.50;0.50;;;;;;;16.15;61.29;100161.80;52544;1273;1016686;-67
2022/05/27 03:05:17;;;;;;;4.80;0.60;;;;;;;16.14;61.33;100164.89;52645;1271;1016139;-66
2022/05/27 03:08:03;;;;;;;5.20;0.60;;;;;;;16.14;61.34;100163.92;52602;1273;1016215;-66
2022/05/27 03:10:49;;;;;;;5.10;0.70;;;;;;;16.15;61.30;100160.80;52804;1273;1015865;-66
2022/05/27 03:13:35;;;;;;;5.30;0.80;;;;;;;16.14;61.51;100158.90;52579;1273;1016382;-67
2022/05/27 03:16:15;;;;;;;1.60;0.40;;;;;;;16.15;61.37;100152.34;52504;1273;1019847;-67
2022/05/27 03:18:59;;;;;;;6.00;1.30;;;;;;;16.14;61.50;100154.55;52518;1273;1016471;-67
2022/05/27 03:21:35;;;;;;;4.20;0.60;;;;;;;16.14;61.52;100153.11;52613;1273;1016372;-66
2022/05/27 03:24:18;;;;;;;3.40;0.50;;;;;;;16.15;61.38;100152.51;52540;1273;1016670;-67
2022/05/27 03:27:09;;;;;;;4.10;0.50;;;;;;;16.15;61.60;100146.82;52552;1273;1016569;-68
2022/05/27 03:29:43;;;;;;;2.60;0.50;;;;;;;16.15;61.65;100147.69;52661;1273;1016730;-66
2022/05/27 03:32:24;;;;;;;2.70;0.50;;;;;;;16.15;61.66;100145.08;52509;1273;1016553;-66
2022/05/27 03:35:00;;;;;;;1.80;0.40;;;;;;;16.14;61.85;100145.39;52604;1273;1016614;-66
2022/05/27 03:37:34;;;;;;;6.40;0.60;;;;;;;16.14;61.60;100143.70;52652;1273;1016268;-66
2022/05/27 03:40:09;;;;;;;3.50;0.50;;;;;;;16.13;61.84;100143.45;52595;1273;1015831;-68
2022/05/27 03:42:40;;;;;;;3.20;0.60;;;;;;;16.15;61.91;100144.61;52700;1273;1016481;-68
2022/05/27 03:45:13;;;;;;;5.00;0.60;;;;;;;16.16;61.79;100139.54;52601;1273;1017147;-68
2022/05/27 03:47:52;;;;;;;3.00;0.60;;;;;;;16.17;61.86;100134.00;52495;1273;1016339;-68
2022/05/27 03:50:23;;;;;;;5.70;0.60;;;;;;;16.17;61.96;100134.73;52519;1273;1016921;-68
2022/05/27 03:52:55;;;;;;;3.50;0.50;;;;;;;16.18;62.02;100131.73;52538;1273;1016529;-68
2022/05/27 03:55:26;;;;;;;4.40;0.40;;;;;;;16.19;61.79;100129.90;52647;1273;1017184;-68
2022/05/27 03:57:57;;;;;;;3.60;0.40;;;;;;;16.21;61.87;100132.25;50431;1273;6778181;-67
2022/05/27 04:00:26;;;;;;;4.50;0.40;;;;;;;16.22;61.82;100127.42;52732;1273;1017119;-68
2022/05/27 04:02:55;;;;;;;4.60;0.50;;;;;;;16.23;61.68;100125.12;52483;1273;1016448;-68
2022/05/27 04:05:24;;;;;;;3.60;0.50;;;;;;;16.24;61.94;100127.83;52673;1273;1016719;-68
2022/05/27 04:07:53;;;;;;;2.30;0.50;;;;;;;16.25;61.92;100129.61;52568;1273;1018706;-68
2022/05/27 04:10:22;;;;;;;4.20;0.50;;;;;;;16.26;61.80;100128.52;52648;1273;1016550;-68
2022/05/27 04:12:52;;;;;;;3.80;0.50;;;;;;;16.27;61.99;100127.60;52665;1273;1015834;-68
2022/05/27 04:15:21;;;;;;;3.90;0.60;;;;;;;16.28;61.94;100131.12;52664;1273;1016670;-68
2022/05/27 04:17:50;;;;;;;3.90;0.60;;;;;;;16.29;61.90;100125.90;52691;1273;1016694;-68
2022/05/27 04:20:20;;;;;;;6.10;0.60;;;;;;;16.31;61.99;100129.17;52562;1273;1016454;-68
2022/05/27 04:22:54;;;;;;;4.80;0.70;;;;;;;16.32;61.95;100129.36;52642;1273;1016584;-68
2022/05/27 04:25:24;;;;;;;6.10;0.70;;;;;;;16.34;61.84;100129.55;52583;1273;1016597;-68
2022/05/27 04:27:53;;;;;;;5.40;0.70;;;;;;;16.35;62.07;100123.25;52662;1273;1016753;-67
2022/05/27 04:30:24;;;;;;;4.10;0.50;;;;;;;16.38;61.92;100124.67;52657;1273;1016252;-67
2022/05/27 04:32:53;;;;;;;5.20;0.60;;;;;;;16.40;62.09;100124.25;52681;1273;1016099;-68
2022/05/27 04:35:24;;;;;;;4.30;0.40;;;;;;;16.42;61.99;100116.44;52722;1273;1018486;-67
2022/05/27 04:37:53;;;;;;;5.60;0.50;;;;;;;16.44;62.05;100113.71;52914;1273;1016707;-67
2022/05/27 04:40:24;;;;;;;1.80;0.50;;;;;;;16.45;61.88;100106.42;52684;1273;1016356;-67
2022/05/27 04:42:54;;;;;;;3.10;0.40;;;;;;;16.46;61.99;100101.81;52685;1273;1016600;-67
2022/05/27 04:45:23;;;;;;;2.30;0.60;;;;;;;16.46;62.13;100099.35;52628;1271;1020615;-69
2022/05/27 04:47:53;;;;;;;3.30;0.50;;;;;;;16.47;61.99;100097.35;53058;1273;1016524;-68
2022/05/27 04:50:23;;;;;;;5.40;0.70;;;;;;;16.48;62.06;100090.89;52578;1273;1016538;-68
2022/05/27 04:52:53;;;;;;;2.50;0.40;;;;;;;16.50;62.09;100091.42;52673;1271;1016365;-67
2022/05/27 04:55:22;;;;;;;2.20;0.60;;;;;;;16.52;62.06;100089.81;52739;1273;1016705;-67
2022/05/27 04:57:54;;;;;;;3.90;0.50;;;;;;;16.54;62.05;100087.59;52594;1273;1016572;-67
2022/05/27 05:00:27;;;;;;;2.30;0.40;;;;;;;16.56;62.05;100092.55;52606;1273;1016356;-68
2022/05/27 05:02:57;;;;;;;4.60;0.50;;;;;;;16.58;62.08;100091.97;52522;1273;1016499;-68
2022/05/27 05:05:30;;;;;;;3.00;0.50;;;;;;;16.61;62.10;100090.31;52511;1273;1016609;-68
2022/05/27 05:08:03;;;;;;;6.60;1.00;;;;;;;16.64;62.08;100088.84;52689;1273;1019467;-68
2022/05/27 05:10:34;;;;;;;9.50;0.90;;;;;;;16.68;62.13;100090.61;52707;1273;1016257;-67
2022/05/27 05:13:05;;;;;;;3.40;0.50;;;;;;;16.70;62.02;100093.67;52587;1273;1016629;-68
2022/05/27 05:15:34;;;;;;;3.30;0.50;;;;;;;16.72;61.93;100087.19;52654;1272;1016013;-68
2022/05/27 05:18:05;;;;;;;4.00;0.40;;;;;;;16.76;62.15;100089.41;52622;1273;1019783;-68
2022/05/27 05:20:34;;;;;;;4.10;0.40;;;;;;;16.79;61.97;100090.15;52661;1273;1016392;-68
2022/05/27 05:23:04;;;;;;;3.00;0.50;;;;;;;16.83;62.07;100086.70;52661;1273;1016711;-68
2022/05/27 05:25:33;;;;;;;7.20;0.50;;;;;;;16.85;62.33;100080.83;52620;1273;1016347;-68
2022/05/27 05:28:04;;;;;;;4.70;0.70;;;;;;;16.87;62.23;100078.09;54024;1273;1016398;-66
2022/05/27 05:30:34;;;;;;;3.20;0.50;;;;;;;16.90;62.37;100076.61;52518;1273;1016477;-66
2022/05/27 05:33:04;;;;;;;3.40;0.50;;;;;;;16.92;62.45;100075.02;52656;1273;1016673;-66
2022/05/27 05:35:34;;;;;;;2.80;0.60;;;;;;;16.94;62.36;100070.14;52636;1273;1017979;-66
2022/05/27 05:38:04;;;;;;;3.30;0.50;;;;;;;16.94;62.47;100074.84;52633;1273;1015959;-66
2022/05/27 05:40:35;;;;;;;3.70;0.50;;;;;;;16.96;62.44;100072.97;52675;1273;1015765;-67
2022/05/27 05:43:06;;;;;;;6.60;0.60;;;;;;;16.98;62.37;100071.79;52705;1273;1016509;-69
2022/05/27 05:45:36;;;;;;;3.50;0.50;;;;;;;16.98;62.42;100071.78;52642;1273;1016714;-68
2022/05/27 05:48:06;;;;;;;4.50;0.50;;;;;;;16.99;62.55;100073.56;52669;1273;1016130;-68
2022/05/27 05:50:36;;;;;;;4.00;0.60;;;;;;;17.00;62.55;100072.44;52663;1273;1015990;-68
2022/05/27 05:53:05;;;;;;;6.80;0.50;;;;;;;17.02;62.73;100065.69;52653;1273;1016490;-68
2022/05/27 05:55:35;;;;;;;3.00;0.50;;;;;;;17.04;62.72;100070.14;52761;1273;1017244;-68
2022/05/27 05:58:06;;;;;;;5.60;0.70;;;;;;;17.04;62.71;100064.09;52610;1273;1016577;-69
2022/05/27 06:00:35;;;;;;;6.10;0.80;;;;;;;17.04;62.91;100060.17;52629;1273;1016450;-68
2022/05/27 06:03:06;;;;;;;7.10;0.70;;;;;;;17.05;62.94;100057.98;52660;1273;1016179;-68
2022/05/27 06:05:38;;;;;;;5.30;0.50;;;;;;;17.05;63.00;100053.96;52581;1273;1016194;-69
2022/05/27 06:08:10;;;;;;;6.40;0.70;;;;;;;17.08;63.02;100053.42;52549;1273;1016170;-67
2022/05/27 06:10:39;;;;;;;7.70;0.80;;;;;;;17.12;63.21;100051.69;52593;1273;1016518;-67
2022/05/27 06:13:09;;;;;;;4.00;0.60;;;;;;;17.17;63.07;100047.13;52737;1273;1015832;-68
2022/05/27 06:15:41;;;;;;;2.40;0.50;;;;;;;17.21;63.25;100045.60;52671;1273;1016222;-68
2022/05/27 06:18:13;;;;;;;6.60;0.50;;;;;;;17.25;63.14;100048.21;52666;1273;1016159;-68
2022/05/27 06:20:42;;;;;;;3.80;0.60;;;;;;;17.28;63.15;100048.86;52698;1273;1016625;-68
2022/05/27 06:23:13;;;;;;;3.50;0.60;;;;;;;17.30;63.07;100045.71;52667;1273;1016289;-68
2022/05/27 06:25:42;;;;;;;;;;;;;;;17.33;63.05;100047.31;52648;1273;1015928;-69
2022/05/27 06:36:33;;;;;;;5.50;0.60;;;;;;;17.45;63.17;100045.21;52564;1273;1016146;-68
2022/05/27 06:39:03;;;;;;;2.30;0.40;;;;;;;17.44;63.08;100048.91;52675;1273;1016105;-68
2022/05/27 06:41:32;;;;;;;7.20;0.90;;;;;;;17.43;63.09;100049.19;52688;1273;1016462;-68
2022/05/27 06:44:03;;;;;;;6.40;0.70;;;;;;;17.42;63.24;100047.97;52760;1273;1015819;-68
2022/05/27 06:46:33;;;;;;;5.50;0.50;;;;;;;17.41;62.56;100049.10;52688;1273;1016610;-68
2022/05/27 06:49:03;;;;;;;5.70;0.80;;;;;;;17.41;62.43;100047.67;52639;1273;1019941;-68
2022/05/27 06:51:34;;;;;;;6.00;0.60;;;;;;;17.40;61.83;100050.81;52589;1273;1016284;-68
2022/05/27 06:54:03;;;;;;;;;;;;;;;17.40;61.78;100043.58;52620;1273;1016470;-68
2022/05/27 06:56:33;;;;;;;4.20;0.90;;;;;;;17.38;61.64;100045.66;52600;1273;1016221;-68
2022/05/27 06:59:05;;;;;;;7.50;0.60;;;;;;;17.37;61.65;100041.63;52737;1273;1016217;-69
2022/05/27 07:01:35;;;;;;;6.70;0.80;;;;;;;17.36;61.71;100038.39;52655;1273;1015842;-68
2022/05/27 07:04:06;;;;;;;5.90;0.70;;;;;;;17.35;61.64;100039.23;52821;1273;1016797;-69
2022/05/27 07:06:40;;;;;;;3.50;0.60;;;;;;;17.34;61.24;100043.04;52649;1273;1016336;-68
2022/05/27 07:09:10;;;;;;;4.30;0.50;;;;;;;17.32;61.19;100047.89;52668;1273;1016486;-68
2022/05/27 07:11:42;;;;;;;5.00;0.80;;;;;;;17.30;61.21;100046.67;52700;1273;1016715;-69
2022/05/27 07:14:12;;;;;;;5.50;0.50;;;;;;;17.27;61.27;100051.01;52608;1273;1016894;-68
2022/05/27 07:16:41;;;;;;;5.90;0.40;;;;;;;17.23;61.33;100047.73;52704;1273;1020105;-68
2022/05/27 07:19:11;;;;;;;5.30;0.60;;;;;;;17.19;61.53;100049.89;52617;1273;1016609;-68
2022/05/27 07:21:42;;;;;;;4.10;0.60;;;;;;;17.14;61.65;100048.60;52655;1273;1016443;-68
2022/05/27 07:24:13;;;;;;;4.80;0.60;;;;;;;17.10;61.57;100054.75;52596;1273;1016810;-68
2022/05/27 07:26:44;;;;;;;7.40;0.60;;;;;;;17.07;61.81;100057.08;52984;1273;1016733;-69
2022/05/27 07:29:14;;;;;;;3.60;0.50;;;;;;;17.01;62.39;100063.19;52626;1273;1016562;-68
2022/05/27 07:31:44;;;;;;;6.30;1.00;;;;;;;16.93;62.63;100069.05;52619;1273;1016665;-68
2022/05/27 07:34:14;;;;;;;5.30;0.80;;;;;;;16.84;63.33;100066.54;52592;1273;1018891;-68
2022/05/27 07:36:43;;;;;;;7.10;0.90;;;;;;;16.74;63.42;100069.86;52941;1273;1018422;-68
2022/05/27 07:39:12;;;;;;;5.90;0.80;;;;;;;16.60;64.12;100068.11;52563;1273;1016467;-69
2022/05/27 07:41:43;;;;;;;7.60;0.90;;;;;;;16.49;64.40;100075.78;52608;1273;1016017;-68
2022/05/27 07:44:11;;;;;;;;;;;;;;;16.41;65.17;100076.13;52652;1273;1016603;-68
2022/05/27 07:46:40;;;;;;;4.10;0.70;;;;;;;16.31;66.12;100085.83;52689;1273;1016413;-68
2022/05/27 07:49:10;;;;;;;6.50;0.80;;;;;;;16.18;66.91;100083.40;52680;1273;1016004;-68
2022/05/27 07:51:39;;;;;;;6.20;0.90;;;;;;;16.04;67.55;100092.55;52658;1273;1016363;-67
2022/05/27 07:54:11;;;;;;;3.20;0.90;;;;;;;15.88;68.41;100095.30;52750;1273;1016270;-67
2022/05/27 07:56:42;;;;;;;3.10;0.70;;;;;;;15.72;68.91;100104.84;52655;1273;1016011;-68
2022/05/27 07:59:11;;;;;;;4.50;0.80;;;;;;;15.55;69.69;100106.64;52684;1273;1016004;-68
2022/05/27 08:01:41;;;;;;;6.20;0.80;;;;;;;15.39;70.59;100110.71;52643;1273;1016432;-68
2022/05/27 08:04:12;;;;;;;3.60;0.90;;;;;;;15.22;71.80;100109.14;52655;1273;1015980;-68
2022/05/27 08:06:42;;;;;;;5.20;1.00;;;;;;;15.07;72.68;100109.53;52532;1273;1016585;-68
2022/05/27 08:09:12;;;;;;;3.90;0.90;;;;;;;14.95;73.75;100111.64;52623;1273;1016853;-67
2022/05/27 08:11:41;;;;;;;4.30;0.90;;;;;;;14.82;74.27;100114.55;52637;1273;1016384;-68
2022/05/27 08:14:11;;;;;;;4.20;1.00;;;;;;;14.70;74.91;100112.21;52661;1273;1019291;-64
2022/05/27 08:16:41;;;;;;;4.70;0.90;;;;;;;14.62;75.86;100111.59;52597;1273;1016424;-63
2022/05/27 08:19:11;;;;;;;6.60;0.90;;;;;;;14.53;76.22;100113.02;52659;1273;1015670;-66
2022/05/27 08:21:40;;;;;;;4.40;0.90;;;;;;;14.47;76.96;100105.80;52619;1273;1016144;-64
2022/05/27 08:24:10;;;;;;;1.60;0.50;;;;;;;14.41;77.45;100108.00;52663;1273;1016226;-65
2022/05/27 08:26:40;;;;;;;2.10;0.80;;;;;;;14.35;77.92;100111.56;52743;1273;1016349;-64
2022/05/27 08:29:10;;;;;;;4.70;0.70;;;;;;;14.28;78.61;100114.75;52648;1273;1016703;-64
2022/05/27 08:31:40;;;;;;;2.60;0.50;;;;;;;14.20;78.08;100118.96;52705;1273;1016206;-64
2022/05/27 08:39:46;;;;;;;1.00;0.30;;;;;;;13.94;77.55;100123.31;52561;1273;1017631;-64
2022/05/27 08:42:25;;;;;;;4.80;0.50;;;;;;;13.86;78.90;100122.94;52616;1275;1016646;-66
2022/05/27 08:45:09;;;;;;;1.20;0.30;;;;;;;13.78;78.13;100116.06;52529;1273;1016484;-63
2022/05/27 08:47:43;;;;;;;3.90;0.30;;;;;;;13.78;78.65;100122.03;52482;1274;1016530;-64
2022/05/27 08:50:17;;;;;;;3.30;0.30;;;;;;;13.76;78.60;100125.15;52641;1273;1016422;-65
2022/05/27 08:52:51;;;;;;;2.20;0.20;;;;;;;13.75;78.82;100129.94;52628;1273;1016468;-64
2022/05/27 09:01:17;;;;;;;1.70;0.40;;;;;;;13.63;79.10;100126.11;52559;1273;1019941;-64
2022/05/27 09:03:56;;;;;;;3.30;0.40;;;;;;;13.60;78.88;100120.02;52650;1273;1016693;-64
2022/05/27 09:06:36;;;;;;;3.10;0.50;;;;;;;13.60;78.97;100125.16;52632;1272;1015920;-64
2022/05/27 09:09:08;;;;;;;1.70;0.60;;;;;;;13.55;78.97;100123.61;52643;1273;1016169;-66
2022/05/27 09:11:52;;;;;;;5.10;0.60;;;;;;;13.48;78.64;100132.86;52700;1273;1016379;-65
2022/05/27 09:14:24;;;;;;;2.30;1.20;;;;;;;13.41;78.86;100129.04;52633;1273;1016447;-66
2022/05/27 09:16:58;;;;;;;3.50;0.40;;;;;;;13.37;79.14;100136.83;52648;1273;1016307;-65
2022/05/27 09:19:36;;;;;;;2.70;0.40;;;;;;;13.35;79.20;100141.65;52704;1273;1016198;-65
2022/05/27 09:22:16;;;;;;;5.40;0.70;;;;;;;13.36;78.83;100135.23;52648;1273;1016432;-65
2022/05/27 09:24:57;;;;;;;2.10;0.50;;;;;;;13.36;78.98;100142.33;52560;1273;1016430;-66
2022/05/27 09:27:26;;;;;;;;;;;;;;;13.38;79.55;100141.11;52768;1273;1015906;-66
2022/05/27 09:30:02;;;;;;;6.90;0.80;;;;;;;13.37;79.30;100141.61;52608;1273;1016410;-66
2022/05/27 09:32:38;;;;;;;4.10;0.70;;;;;;;13.36;79.18;100143.19;52604;1273;1016597;-67
2022/05/27 09:35:12;;;;;;;3.30;0.60;;;;;;;13.34;79.19;100145.63;52605;1273;1016581;-67
2022/05/27 09:37:46;;;;;;;1.70;0.40;;;;;;;13.29;79.15;100147.70;52749;1273;1016740;-67
2022/05/27 09:40:20;;;;;;;4.70;0.70;;;;;;;13.23;78.83;100150.24;52685;1273;1016388;-68
2022/05/27 09:42:59;;;;;;;2.70;0.40;;;;;;;13.20;79.55;100162.50;52594;1273;1019543;-68
2022/05/27 09:45:30;;;;;;;4.40;0.60;;;;;;;13.08;80.34;100160.67;52665;1273;1016260;-68
2022/05/27 09:48:03;;;;;;;5.30;0.70;;;;;;;12.95;80.75;100171.00;52699;1273;1018651;-67
2022/05/27 09:50:38;;;;;;;3.10;0.60;;;;;;;12.82;80.67;100172.02;52860;1273;1016535;-69
2022/05/27 09:53:11;;;;;;;3.60;0.40;;;;;;;12.73;80.52;100178.19;52681;1273;1016252;-69
2022/05/27 09:55:47;;;;;;;2.40;0.50;;;;;;;12.71;80.78;100179.81;52630;1273;1016609;-69
2022/05/27 09:58:25;;;;;;;3.70;0.50;;;;;;;12.68;80.95;100179.82;52666;1273;1016474;-68
2022/05/27 10:00:55;;;;;;;3.00;0.50;;;;;;;12.61;81.17;100187.34;52581;1273;1016525;-67
2022/05/27 10:03:34;;;;;;;4.80;1.00;;;;;;;12.54;81.25;100184.63;52639;1273;1017973;-69
2022/05/27 10:06:07;;;;;;;2.30;0.50;;;;;;;12.53;81.35;100180.34;52923;1273;1016401;-70
2022/05/27 10:08:40;;;;;;;4.90;0.70;;;;;;;12.54;81.48;100180.20;52633;1273;1016586;-68
2022/05/27 10:11:19;;;;;;;2.30;0.50;;;;;;;12.58;81.56;100186.97;52729;1273;1017014;-68
2022/05/27 10:13:50;;;;;;;4.20;0.80;;;;;;;12.58;81.62;100188.43;52603;1273;1016802;-67
2022/05/27 10:16:28;;;;;;;4.50;0.80;;;;;;;12.60;81.91;100184.02;52686;1273;1016336;-66
2022/05/27 10:19:10;;;;;;;4.70;0.90;;;;;;;12.62;82.37;100181.55;52624;1273;1016488;-65
2022/05/27 10:21:54;;;;;;;3.50;0.70;;;;;;;12.67;82.40;100178.84;52729;1273;1017062;-67
2022/05/27 10:24:27;;;;;;;3.30;1.00;;;;;;;12.71;82.39;100176.65;52625;1273;1016132;-67
2022/05/27 10:27:07;;;;;;;3.10;0.70;;;;;;;12.74;82.53;100174.42;52692;1273;1016411;-66
2022/05/27 10:29:51;;;;;;;4.40;0.90;;;;;;;12.77;82.71;100177.77;52598;1273;1017622;-65
2022/05/27 10:32:33;;;;;;;5.30;1.20;;;;;;;12.79;83.08;100172.64;52611;1273;1016580;-65
2022/05/27 10:35:04;;;;;;;8.60;1.70;;;;;;;12.81;82.84;100174.55;52705;1273;1015885;-64
2022/05/27 10:37:53;;;;;;;8.90;1.30;;;;;;;12.84;83.23;100174.77;52677;1273;1016260;-65
2022/05/27 10:40:38;;;;;;;5.40;1.00;;;;;;;12.88;83.52;100172.83;52557;1273;1016632;-64
2022/05/27 10:43:24;;;;;;;5.50;0.90;;;;;;;12.92;83.55;100174.74;52559;1273;1016597;-64
2022/05/27 10:45:56;;;;;;;3.60;0.90;;;;;;;12.96;83.40;100173.76;52556;1273;1016623;-64
2022/05/27 10:49:02;;;;;;;6.00;0.90;;;;;;;12.99;83.75;100175.66;52672;1273;1016757;-64
2022/05/27 10:51:48;;;;;;;4.80;1.00;;;;;;;13.06;83.83;100171.93;52621;1273;1016478;-65
2022/05/27 10:54:33;;;;;;;4.80;1.00;;;;;;;13.11;84.06;100154.08;52663;1273;1016770;-65
2022/05/27 11:03:18;;;;;;;4.50;0.80;;;;;;;13.25;84.05;100158.41;52553;1273;1016099;-65
2022/05/27 11:06:06;;;;;;;5.30;1.00;;;;;;;13.31;84.63;100161.77;52530;1273;1016616;-65
2022/05/27 11:08:52;;;;;;;6.00;1.70;;;;;;;13.38;84.54;100162.42;52577;1273;1016676;-65
2022/05/27 11:11:30;;;;;;;4.80;1.00;;;;;;;13.46;84.60;100152.64;52763;1273;1016553;-65
2022/05/27 11:17:12;;;;;;;2.70;0.70;;;;;;;13.55;84.26;100159.61;52656;1273;1016080;-66
2022/05/27 11:20:05;;;;;;;3.40;0.90;;;;;;;13.58;84.44;100165.80;52534;1273;1016496;-66
2022/05/27 11:22:40;;;;;;;4.60;1.00;;;;;;;13.59;84.25;100146.06;52672;1273;1016130;-66
2022/05/27 11:25:26;;;;;;;4.40;0.80;;;;;;;13.58;84.13;100136.69;52584;1273;1015961;-65
2022/05/27 11:28:13;;;;;;;4.10;0.60;;;;;;;13.59;84.56;100135.56;52573;1273;1016376;-65
2022/05/27 11:30:51;;;;;;;5.20;0.70;;;;;;;13.58;84.30;100131.48;52647;1273;1016660;-65
2022/05/27 11:33:44;;;;;;;4.50;1.00;;;;;;;13.55;84.17;100130.04;52654;1273;1016359;-65
2022/05/27 11:36:30;;;;;;;3.00;0.80;;;;;;;13.54;84.29;100120.05;52661;1273;1016677;-64
2022/05/27 11:39:32;;;;;;;2.30;0.50;;;;;;;13.51;83.86;100114.01;52688;1273;1016549;-64
2022/05/27 11:42:16;;;;;;;3.30;0.60;;;;;;;13.47;83.57;100135.35;52570;1274;1016497;-65
2022/05/27 11:44:57;;;;;;;3.20;0.70;;;;;;;13.41;83.60;100142.50;52659;1273;1016556;-65
2022/05/27 11:47:35;;;;;;;;;;;;;;;13.37;83.46;100135.39;52580;1273;1015901;-65
2022/05/27 11:50:17;;;;;;;2.30;0.50;;;;;;;13.33;83.45;100132.92;52657;1275;1016015;-65
2022/05/27 11:53:04;;;;;;;4.10;0.70;;;;;;;13.31;83.16;100108.34;52710;1273;1017009;-65
2022/05/27 11:55:57;;;;;;;2.20;0.60;;;;;;;13.26;82.93;100112.08;52589;1273;1015927;-66
2022/05/27 11:58:42;;;;;;;2.10;0.40;;;;;;;13.23;83.18;100129.04;52710;1273;1016014;-66
2022/05/27 12:01:18;;;;;;;5.10;0.60;;;;;;;13.20;82.83;100141.09;52619;1273;1016374;-67
2022/05/27 12:03:53;;;;;;;4.00;0.80;;;;;;;13.18;82.93;100134.83;52743;1273;1016360;-66
2022/05/27 12:06:29;;;;;;;3.60;0.70;;;;;;;13.18;82.57;100081.55;52781;1273;1016321;-66
2022/05/27 12:09:02;;;;;;;5.20;0.70;;;;;;;13.16;82.79;100138.88;52687;1271;1015843;-65
2022/05/27 12:11:38;;;;;;;2.90;0.40;;;;;;;13.14;82.97;100145.70;52714;1273;1016186;-66
2022/05/27 12:14:14;;;;;;;3.30;0.60;;;;;;;13.12;82.69;100127.54;52555;1273;1017072;-65